Time;durP1;ratioP1;P1;durP2;ratioP2;P2;SDS_P1;SDS_P2;PMS_P1;PMS_P2;Temp;Humidity;BMP_temperature;BMP_pressure;BME280_temperature;BME280_humidity;BME280_pressure;Samples;Min_cycle;Max_cycle;Signal;HPM_P1;HPM_P2
2023/04/13 00:01:56;;;;;;;1.40;0.50;;;19.40;56.60;;;;;;5112767;28;20531;-66
2023/04/13 00:04:22;;;;;;;2.72;0.50;;;19.40;56.60;;;;;;5112605;28;20399;-67
2023/04/13 00:06:51;;;;;;;1.88;0.75;;;19.30;56.50;;;;;;5112338;28;20052;-66
2023/04/13 00:09:17;;;;;;;1.30;0.55;;;19.40;56.50;;;;;;5112567;28;20042;-66
2023/04/13 00:11:45;;;;;;;2.15;0.40;;;19.30;56.40;;;;;;5110904;28;20049;-66
2023/04/13 00:14:11;;;;;;;2.05;0.40;;;19.30;56.40;;;;;;5111098;28;20040;-66
2023/04/13 00:16:37;;;;;;;2.03;0.60;;;19.30;56.40;;;;;;5113237;28;20122;-66
2023/04/13 00:19:03;;;;;;;0.88;0.40;;;19.30;56.40;;;;;;5111490;28;20044;-66
2023/04/13 00:21:28;;;;;;;1.98;0.73;;;19.30;56.30;;;;;;5114762;28;20047;-66
2023/04/13 00:23:54;;;;;;;1.40;0.47;;;19.30;56.30;;;;;;5117079;28;20047;-66
2023/04/13 00:26:21;;;;;;;2.75;0.50;;;19.30;56.20;;;;;;5116297;28;20043;-66
2023/04/13 00:28:47;;;;;;;1.52;0.60;;;19.30;56.20;;;;;;5115715;28;20048;-66
2023/04/13 00:31:13;;;;;;;1.02;0.40;;;19.30;56.20;;;;;;5115516;28;20120;-66
2023/04/13 00:33:38;;;;;;;1.30;0.50;;;19.30;56.20;;;;;;5115889;28;20084;-66
2023/04/13 00:36:05;;;;;;;2.03;0.60;;;19.20;56.10;;;;;;5115274;28;20449;-66
2023/04/13 00:38:30;;;;;;;0.68;0.40;;;19.20;56.10;;;;;;5116643;28;20047;-66
2023/04/13 00:40:56;;;;;;;1.65;0.70;;;19.30;56.10;;;;;;5115832;28;20038;-66
2023/04/13 00:43:22;;;;;;;2.08;0.60;;;19.20;56.00;;;;;;5115125;28;20063;-66
2023/04/13 00:45:48;;;;;;;2.67;0.40;;;19.30;56.10;;;;;;5116706;28;20051;-66
2023/04/13 00:48:14;;;;;;;1.45;0.50;;;19.20;56.00;;;;;;5115352;28;20063;-66
2023/04/13 00:50:40;;;;;;;1.25;0.50;;;19.20;56.00;;;;;;5116792;28;20043;-66
2023/04/13 00:53:06;;;;;;;1.15;0.45;;;19.30;56.00;;;;;;5114627;28;20039;-66
2023/04/13 00:55:32;;;;;;;2.65;0.60;;;19.20;55.90;;;;;;5097561;28;20035;-66
2023/04/13 00:57:58;;;;;;;0.98;0.50;;;19.20;55.90;;;;;;5114531;28;20046;-67
2023/04/13 01:00:24;;;;;;;1.42;0.50;;;19.20;55.90;;;;;;5115421;28;20047;-66
2023/04/13 01:02:51;;;;;;;1.10;0.43;;;19.20;55.80;;;;;;5114554;28;20139;-66
2023/04/13 01:05:17;;;;;;;1.60;0.50;;;19.20;55.80;;;;;;5115931;28;20126;-66
2023/04/13 01:08:21;;;;;;;1.13;0.40;;;19.20;55.80;;;;;;5095265;28;20127;-66
2023/04/13 01:10:54;;;;;;;2.05;0.50;;;19.20;55.70;;;;;;5087576;28;20139;-66
2023/04/13 01:13:40;;;;;;;0.95;0.40;;;19.20;55.70;;;;;;5111575;28;20044;-66
2023/04/13 01:16:28;;;;;;;2.55;0.50;;;19.10;55.60;;;;;;5078488;28;20117;-66
2023/04/13 01:18:53;;;;;;;1.52;0.40;;;19.10;55.60;;;;;;5095983;28;20048;-67
2023/04/13 01:21:23;;;;;;;1.73;0.50;;;19.10;55.70;;;;;;5093733;28;20051;-66
2023/04/13 01:24:01;;;;;;;0.70;0.40;;;19.10;55.60;;;;;;5077234;28;20073;-66
2023/04/13 01:26:32;;;;;;;1.17;0.43;;;19.10;55.60;;;;;;5077814;28;20048;-66
2023/04/13 01:28:58;;;;;;;1.10;0.40;;;19.10;55.70;;;;;;5097949;28;20044;-65
2023/04/13 01:31:23;;;;;;;1.15;0.50;;;19.10;55.60;;;;;;5076577;28;20416;-66
2023/04/13 01:33:49;;;;;;;0.57;0.30;;;19.10;55.60;;;;;;5099286;28;20061;-65
2023/04/13 01:36:15;;;;;;;1.38;0.60;;;19.10;55.60;;;;;;5114782;28;20114;-66
2023/04/13 01:38:41;;;;;;;1.52;0.40;;;19.10;55.50;;;;;;5114193;28;20555;-65
2023/04/13 01:41:07;;;;;;;3.30;0.40;;;19.10;55.50;;;;;;5114372;28;20127;-65
2023/04/13 01:43:33;;;;;;;0.80;0.40;;;19.10;55.50;;;;;;5114604;28;20047;-65
2023/04/13 01:46:14;;;;;;;1.13;0.45;;;19.10;55.50;;;;;;5113910;28;20065;-65
2023/04/13 01:48:48;;;;;;;1.40;0.32;;;19.10;55.50;;;;;;5113968;28;20447;-65
2023/04/13 01:51:33;;;;;;;1.48;0.40;;;19.10;55.60;;;;;;5097272;28;20047;-65
2023/04/13 01:54:09;;;;;;;0.88;0.30;;;19.10;55.60;;;;;;5070809;28;20040;-65
2023/04/13 01:56:36;;;;;;;1.13;0.50;;;19.10;55.60;;;;;;5074722;28;20565;-66
2023/04/13 01:59:01;;;;;;;1.88;0.50;;;19.10;55.60;;;;;;5078538;28;20059;-65
2023/04/13 02:01:27;;;;;;;1.48;0.50;;;19.10;55.60;;;;;;5095040;28;20488;-66
2023/04/13 02:03:53;;;;;;;1.35;0.40;;;19.10;55.50;;;;;;5094989;28;20044;-65
2023/04/13 02:06:18;;;;;;;1.10;0.50;;;19.10;55.50;;;;;;5093006;28;20048;-65
2023/04/13 02:08:44;;;;;;;0.80;0.30;;;19.10;55.60;;;;;;5094752;28;20043;-66
2023/04/13 02:11:11;;;;;;;1.15;0.40;;;19.10;55.60;;;;;;5094451;28;20040;-67
2023/04/13 02:13:37;;;;;;;1.92;0.43;;;19.10;55.60;;;;;;5094584;28;20032;-65
2023/04/13 02:16:03;;;;;;;1.00;0.35;;;19.10;55.60;;;;;;5094257;28;20405;-65
2023/04/13 02:18:29;;;;;;;1.40;0.43;;;19.10;55.50;;;;;;5093909;28;20089;-65
2023/04/13 02:21:08;;;;;;;0.55;0.40;;;19.20;55.60;;;;;;5094356;28;20050;-65
2023/04/13 02:23:38;;;;;;;1.70;0.40;;;19.20;55.70;;;;;;5094488;28;20044;-65
2023/04/13 02:26:06;;;;;;;0.95;0.40;;;19.20;55.60;;;;;;5093566;28;20131;-65
2023/04/13 02:28:31;;;;;;;;;;;19.20;55.60;;;;;;5094955;28;20055;-65
2023/04/13 02:31:01;;;;;;;1.17;0.40;;;19.20;55.70;;;;;;5072552;28;19932;-65
2023/04/13 02:33:30;;;;;;;1.98;0.30;;;19.20;55.70;;;;;;5073413;28;20079;-65
2023/04/13 02:35:56;;;;;;;1.08;0.35;;;19.20;55.60;;;;;;5091259;28;20048;-65
2023/04/13 02:38:21;;;;;;;1.35;0.50;;;19.20;56.40;;;;;;5094294;28;20063;-65
2023/04/13 02:40:48;;;;;;;0.70;0.32;;;19.20;55.70;;;;;;5093622;28;20403;-65
2023/04/13 02:43:13;;;;;;;1.35;0.47;;;19.30;55.70;;;;;;5091880;28;20415;-65
2023/04/13 02:45:39;;;;;;;1.00;0.30;;;19.30;55.80;;;;;;5109380;28;20043;-65
2023/04/13 02:48:05;;;;;;;0.60;0.30;;;19.30;55.80;;;;;;5113300;28;20039;-65
2023/04/13 02:50:31;;;;;;;1.50;0.45;;;19.30;55.70;;;;;;5113770;28;20122;-65
2023/04/13 02:52:57;;;;;;;1.52;0.40;;;19.30;55.70;;;;;;5114017;28;20487;-65
2023/04/13 02:55:22;;;;;;;1.17;0.30;;;19.30;55.70;;;;;;5113522;28;20364;-65
2023/04/13 02:57:48;;;;;;;1.52;0.30;;;19.40;55.80;;;;;;5114402;28;20052;-65
2023/04/13 03:00:15;;;;;;;1.13;0.38;;;19.40;55.80;;;;;;5113876;28;20035;-65
2023/04/13 03:02:41;;;;;;;1.15;0.30;;;19.40;55.80;;;;;;5113565;28;20044;-64
2023/04/13 03:05:07;;;;;;;0.68;0.30;;;19.40;55.80;;;;;;5113303;28;20047;-65
2023/04/13 03:07:33;;;;;;;0.47;0.30;;;19.50;55.80;;;;;;5111675;28;20368;-64
2023/04/13 03:10:04;;;;;;;1.85;0.32;;;19.50;55.80;;;;;;5113446;28;20085;-64
2023/04/13 03:12:30;;;;;;;0.77;0.30;;;19.50;55.80;;;;;;5112965;28;20051;-65
2023/04/13 03:14:56;;;;;;;1.42;0.40;;;19.50;55.80;;;;;;5111329;28;20044;-65
2023/04/13 03:17:22;;;;;;;1.17;0.38;;;19.60;55.80;;;;;;5112544;28;20035;-65
2023/04/13 03:19:48;;;;;;;0.90;0.30;;;19.50;55.80;;;;;;5113471;28;20054;-65
2023/04/13 03:22:14;;;;;;;0.90;0.30;;;19.60;55.80;;;;;;5112537;28;20126;-65
2023/04/13 03:24:40;;;;;;;1.63;0.40;;;19.60;55.80;;;;;;5113563;28;20040;-66
2023/04/13 03:27:06;;;;;;;1.08;0.30;;;19.60;55.80;;;;;;5112083;28;20051;-66
2023/04/13 03:29:31;;;;;;;1.10;0.40;;;19.60;55.70;;;;;;5112488;28;20071;-65
2023/04/13 03:31:57;;;;;;;0.95;0.30;;;19.60;55.80;;;;;;5113315;28;20043;-66
2023/04/13 03:34:23;;;;;;;1.65;0.30;;;19.60;55.70;;;;;;5113476;28;20035;-66
2023/04/13 03:36:48;;;;;;;1.33;0.40;;;19.60;55.70;;;;;;5111382;28;20032;-65
2023/04/13 03:39:14;;;;;;;0.43;0.25;;;19.70;55.80;;;;;;5111822;28;20183;-65
2023/04/13 03:41:40;;;;;;;1.13;0.30;;;19.70;55.80;;;;;;5112125;28;20462;-66
2023/04/13 03:44:06;;;;;;;1.85;0.30;;;19.70;55.70;;;;;;5111030;28;20062;-65
2023/04/13 03:46:34;;;;;;;0.75;0.30;;;19.70;55.70;;;;;;5113380;28;20047;-65
2023/04/13 03:48:59;;;;;;;0.73;0.30;;;19.70;55.70;;;;;;5113111;28;20052;-65
2023/04/13 03:51:26;;;;;;;1.48;0.30;;;19.70;55.70;;;;;;5111917;28;20036;-67
2023/04/13 03:53:52;;;;;;;1.27;0.35;;;19.70;55.70;;;;;;5112041;28;20081;-66
2023/04/13 03:56:17;;;;;;;0.43;0.22;;;19.70;55.70;;;;;;5111860;28;20075;-65
2023/04/13 03:58:43;;;;;;;0.88;0.25;;;19.70;55.70;;;;;;5112293;28;20044;-65
2023/04/13 04:01:09;;;;;;;0.65;0.30;;;19.70;55.70;;;;;;5103363;28;20044;-65
2023/04/13 04:03:37;;;;;;;1.05;0.30;;;19.70;55.70;;;;;;5092310;28;20043;-65
2023/04/13 04:06:03;;;;;;;0.70;0.27;;;19.80;55.80;;;;;;5091498;28;20072;-65
2023/04/13 04:08:29;;;;;;;0.60;0.30;;;19.80;55.70;;;;;;5091928;28;20399;-66
2023/04/13 04:10:54;;;;;;;1.17;0.30;;;19.80;55.70;;;;;;5091955;28;20525;-66
2023/04/13 04:13:20;;;;;;;1.23;0.30;;;19.80;55.70;;;;;;5092565;28;20040;-66
2023/04/13 04:15:46;;;;;;;0.70;0.25;;;19.80;55.70;;;;;;5092531;28;20040;-66
2023/04/13 04:18:11;;;;;;;0.63;0.20;;;19.80;55.70;;;;;;5091480;28;20134;-66
2023/04/13 04:20:37;;;;;;;0.70;0.30;;;19.80;55.70;;;;;;5093112;28;20044;-66
2023/04/13 04:23:03;;;;;;;1.20;0.38;;;19.80;55.70;;;;;;5091978;28;20495;-66
2023/04/13 04:25:30;;;;;;;1.35;0.40;;;19.80;55.70;;;;;;5100401;28;20055;-66
2023/04/13 04:27:56;;;;;;;0.90;0.30;;;19.90;55.70;;;;;;5112813;28;20039;-65
2023/04/13 04:30:28;;;;;;;1.45;0.40;;;19.80;55.70;;;;;;5112467;28;20043;-66
2023/04/13 04:32:54;;;;;;;1.00;0.20;;;19.90;55.70;;;;;;5110649;28;20043;-66
2023/04/13 04:35:20;;;;;;;1.85;0.43;;;19.90;55.70;;;;;;5111474;28;20040;-66
2023/04/13 04:37:48;;;;;;;0.85;0.20;;;19.90;55.70;;;;;;5111263;28;20434;-65
2023/04/13 04:40:14;;;;;;;0.77;0.20;;;19.90;55.70;;;;;;5107564;28;20457;-65
2023/04/13 04:42:41;;;;;;;0.57;0.20;;;19.90;55.70;;;;;;5092631;28;20067;-66
2023/04/13 04:45:07;;;;;;;1.05;0.25;;;19.90;55.70;;;;;;5091957;28;20415;-66
2023/04/13 04:47:36;;;;;;;0.57;0.30;;;19.90;55.70;;;;;;5091457;28;20044;-66
2023/04/13 04:50:02;;;;;;;1.00;0.28;;;19.90;55.70;;;;;;5095253;28;20066;-66
2023/04/13 04:52:31;;;;;;;0.70;0.28;;;19.90;55.70;;;;;;5112714;28;20079;-65
2023/04/13 04:54:57;;;;;;;0.82;0.20;;;19.90;55.60;;;;;;5110200;28;20027;-66
2023/04/13 04:57:22;;;;;;;0.55;0.20;;;19.90;55.70;;;;;;5108477;28;20556;-66
2023/04/13 04:59:48;;;;;;;0.40;0.17;;;19.90;55.60;;;;;;5091518;28;20538;-66
2023/04/13 05:02:15;;;;;;;0.32;0.20;;;19.90;55.60;;;;;;5090015;28;20284;-65
2023/04/13 05:04:40;;;;;;;1.33;0.30;;;19.90;55.60;;;;;;5092165;28;20149;-66
2023/04/13 05:07:06;;;;;;;0.93;0.32;;;19.90;55.60;;;;;;5092505;28;20114;-66
2023/04/13 05:09:32;;;;;;;0.57;0.30;;;19.90;55.50;;;;;;5095714;28;20036;-66
2023/04/13 05:11:58;;;;;;;0.40;0.30;;;19.90;55.60;;;;;;5095437;28;20422;-66
2023/04/13 05:14:23;;;;;;;0.80;0.30;;;20.00;55.70;;;;;;5095197;28;20032;-66
2023/04/13 05:16:50;;;;;;;1.02;0.20;;;20.00;55.60;;;;;;5095932;28;20527;-66
2023/04/13 05:19:16;;;;;;;1.20;0.30;;;20.00;55.60;;;;;;5095404;28;20052;-65
2023/04/13 05:21:41;;;;;;;0.73;0.20;;;20.00;55.70;;;;;;5109979;28;20051;-66
2023/04/13 05:24:07;;;;;;;0.57;0.20;;;20.00;55.60;;;;;;5114519;28;20131;-66
2023/04/13 05:26:33;;;;;;;0.70;0.20;;;20.00;55.60;;;;;;5115389;28;20039;-66
2023/04/13 05:28:59;;;;;;;1.67;0.30;;;20.00;55.60;;;;;;5109320;28;20036;-65
2023/04/13 05:31:24;;;;;;;0.88;0.30;;;20.00;55.60;;;;;;5095674;28;20112;-66
2023/04/13 05:33:50;;;;;;;0.43;0.20;;;20.00;55.60;;;;;;5093804;28;20047;-66
2023/04/13 05:36:15;;;;;;;0.70;0.30;;;20.00;55.60;;;;;;5094585;28;20079;-66
2023/04/13 05:38:41;;;;;;;0.55;0.28;;;20.00;55.60;;;;;;5095116;28;20047;-66
2023/04/13 05:41:09;;;;;;;0.95;0.30;;;20.00;55.60;;;;;;5104478;28;20040;-66
2023/04/13 05:43:34;;;;;;;0.95;0.28;;;20.00;55.70;;;;;;5113527;28;20043;-66
2023/04/13 05:46:00;;;;;;;0.50;0.20;;;20.00;55.70;;;;;;5114945;28;20044;-66
2023/04/13 05:48:26;;;;;;;1.15;0.30;;;20.10;55.70;;;;;;5115700;28;20463;-66
2023/04/13 05:50:58;;;;;;;0.57;0.20;;;20.00;55.70;;;;;;5114580;28;20048;-66
2023/04/13 05:53:23;;;;;;;1.00;0.30;;;20.10;55.70;;;;;;5115497;28;20048;-65
2023/04/13 05:55:49;;;;;;;0.93;0.30;;;20.10;55.70;;;;;;5114860;28;20032;-65
2023/04/13 05:58:14;;;;;;;1.10;0.30;;;20.10;55.70;;;;;;5114223;28;20043;-66
2023/04/13 06:00:40;;;;;;;2.05;0.20;;;20.10;55.70;;;;;;5114925;28;20035;-66
2023/04/13 06:03:06;;;;;;;0.57;0.20;;;20.10;55.70;;;;;;5113573;28;20039;-65
2023/04/13 06:05:34;;;;;;;0.75;0.30;;;20.10;55.70;;;;;;5114137;28;20035;-65
2023/04/13 06:07:59;;;;;;;0.57;0.20;;;20.10;55.70;;;;;;5114951;28;20046;-65
2023/04/13 06:10:25;;;;;;;0.80;0.30;;;20.10;55.70;;;;;;5113974;28;20043;-65
2023/04/13 06:12:52;;;;;;;1.05;0.30;;;20.10;55.70;;;;;;5115067;28;20054;-66
2023/04/13 06:15:18;;;;;;;0.85;0.20;;;20.10;55.70;;;;;;5099106;28;20089;-66
2023/04/13 06:17:43;;;;;;;0.70;0.20;;;20.10;55.70;;;;;;5093492;28;20048;-65
2023/04/13 06:20:10;;;;;;;0.47;0.20;;;20.10;55.70;;;;;;5093625;28;20145;-65
2023/04/13 06:22:35;;;;;;;0.38;0.13;;;20.10;55.70;;;;;;5094213;28;20490;-65
2023/04/13 06:25:01;;;;;;;0.45;0.20;;;20.10;55.70;;;;;;5093693;28;20044;-65
2023/04/13 06:27:27;;;;;;;0.88;0.35;;;20.10;55.70;;;;;;5094387;28;20067;-65
2023/04/13 06:29:52;;;;;;;0.60;0.30;;;20.10;55.70;;;;;;5094270;28;20093;-65
2023/04/13 06:32:18;;;;;;;0.55;0.22;;;20.20;55.70;;;;;;5109950;28;20443;-66
2023/04/13 06:34:44;;;;;;;0.93;0.30;;;20.20;55.70;;;;;;5114680;28;20035;-65
2023/04/13 06:37:10;;;;;;;0.90;0.20;;;20.20;55.70;;;;;;5112847;28;20051;-65
2023/04/13 06:39:36;;;;;;;0.70;0.30;;;20.20;55.80;;;;;;5113848;28;20043;-65
2023/04/13 06:42:05;;;;;;;0.50;0.30;;;20.20;55.70;;;;;;5114208;28;20054;-65
2023/04/13 06:44:31;;;;;;;0.73;0.30;;;20.20;55.70;;;;;;5114711;28;20063;-65
2023/04/13 06:46:56;;;;;;;0.90;0.20;;;20.20;55.70;;;;;;5111600;28;20070;-66
2023/04/13 06:49:22;;;;;;;2.00;0.40;;;20.20;55.70;;;;;;5114576;28;20067;-63
2023/04/13 06:51:47;;;;;;;0.70;0.20;;;20.20;55.70;;;;;;5113805;28;20448;-64
2023/04/13 06:54:13;;;;;;;2.95;0.40;;;20.20;55.70;;;;;;5113303;28;20036;-65
2023/04/13 06:56:38;;;;;;;3.83;0.40;;;20.20;55.60;;;;;;5114035;28;20051;-64
2023/04/13 06:59:04;;;;;;;1.77;0.35;;;20.20;55.60;;;;;;5112590;28;20049;-65
2023/04/13 07:01:30;;;;;;;1.38;0.28;;;20.20;55.60;;;;;;5113059;28;20062;-65
2023/04/13 07:03:55;;;;;;;2.90;0.30;;;20.20;55.60;;;;;;5112363;28;20067;-67
2023/04/13 07:06:21;;;;;;;1.85;0.30;;;20.30;55.70;;;;;;5113548;28;20191;-64
2023/04/13 07:08:47;;;;;;;3.80;0.43;;;20.30;55.60;;;;;;5112923;28;20054;-65
2023/04/13 07:11:13;;;;;;;2.78;0.63;;;20.30;55.60;;;;;;5112126;28;20043;-66
2023/04/13 07:13:39;;;;;;;1.65;0.40;;;20.30;55.60;;;;;;5097517;28;20046;-66
2023/04/13 07:16:07;;;;;;;2.67;0.55;;;20.30;55.70;;;;;;5093265;28;20036;-66
2023/04/13 07:18:33;;;;;;;;;;;20.30;55.70;;;;;;5094260;28;20043;-65
2023/04/13 07:20:58;;;;;;;1.50;0.30;;;20.30;55.70;;;;;;5092586;28;19924;-65
2023/04/13 07:23:24;;;;;;;1.35;0.32;;;20.30;55.70;;;;;;5092832;28;20048;-65
2023/04/13 07:25:49;;;;;;;4.35;0.40;;;20.30;55.70;;;;;;5093004;28;20044;-64
2023/04/13 07:28:15;;;;;;;1.75;0.40;;;20.30;55.90;;;;;;5091850;28;20047;-64
2023/04/13 07:30:44;;;;;;;2.63;0.38;;;20.30;56.00;;;;;;5089959;28;20131;-65
2023/04/13 07:33:10;;;;;;;2.40;0.40;;;20.40;56.30;;;;;;5092712;28;20038;-65
2023/04/13 07:35:36;;;;;;;4.25;0.40;;;20.30;56.30;;;;;;5090910;28;20131;-64
2023/04/13 07:38:01;;;;;;;2.15;0.40;;;20.40;56.50;;;;;;5072220;28;20040;-65
2023/04/13 07:40:27;;;;;;;4.00;0.50;;;20.30;56.50;;;;;;5071334;28;20044;-64
2023/04/13 07:42:53;;;;;;;1.65;0.38;;;20.40;56.60;;;;;;5091222;28;20119;-67
2023/04/13 07:45:19;;;;;;;2.30;0.30;;;20.40;56.70;;;;;;5092639;28;20044;-66
2023/04/13 07:47:45;;;;;;;3.88;0.35;;;20.40;56.70;;;;;;5092748;28;20402;-65
2023/04/13 07:50:12;;;;;;;1.02;0.30;;;20.40;56.70;;;;;;5091787;28;20376;-65
2023/04/13 07:52:37;;;;;;;2.75;0.45;;;20.40;56.70;;;;;;5092736;28;20044;-64
2023/04/13 07:55:03;;;;;;;2.72;0.52;;;20.40;56.60;;;;;;5092700;28;20043;-63
2023/04/13 07:57:29;;;;;;;4.45;0.30;;;20.40;56.50;;;;;;5105597;28;20027;-63
2023/04/13 07:59:55;;;;;;;1.17;0.30;;;20.40;56.60;;;;;;5112547;28;20104;-63
2023/04/13 08:02:21;;;;;;;1.50;0.35;;;20.40;56.60;;;;;;5112612;28;20043;-64
2023/04/13 08:04:47;;;;;;;2.65;0.38;;;20.40;57.30;;;;;;5112090;28;20407;-65
2023/04/13 08:07:13;;;;;;;3.60;0.47;;;20.40;56.60;;;;;;5112512;28;20517;-65
2023/04/13 08:09:39;;;;;;;2.03;0.47;;;20.40;56.70;;;;;;5112989;28;20035;-64
2023/04/13 08:12:05;;;;;;;2.97;0.40;;;20.40;56.60;;;;;;5111851;28;20066;-65
2023/04/13 08:14:31;;;;;;;2.53;0.50;;;20.40;56.60;;;;;;5111478;28;20040;-65
2023/04/13 08:16:56;;;;;;;3.00;0.40;;;20.40;56.70;;;;;;5110344;28;20126;-64
2023/04/13 08:19:22;;;;;;;2.75;0.47;;;20.40;56.70;;;;;;5111681;28;20164;-65
2023/04/13 08:21:49;;;;;;;2.38;0.47;;;20.40;56.60;;;;;;5112084;28;20052;-65
2023/04/13 08:24:14;;;;;;;3.33;0.52;;;20.40;56.60;;;;;;5110610;28;20058;-65
2023/04/13 08:26:40;;;;;;;6.75;0.50;;;20.40;56.60;;;;;;5111247;28;20134;-64
2023/04/13 08:29:05;;;;;;;1.85;0.40;;;20.40;56.60;;;;;;5112544;28;20048;-65
2023/04/13 08:31:31;;;;;;;2.83;0.63;;;20.40;56.70;;;;;;5108927;28;20107;-65
2023/04/13 08:33:57;;;;;;;3.03;0.47;;;20.50;56.80;;;;;;5091999;28;20386;-65
2023/04/13 08:36:22;;;;;;;1.85;0.47;;;20.50;56.80;;;;;;5090791;28;20044;-66
2023/04/13 08:38:48;;;;;;;3.45;0.50;;;20.50;56.80;;;;;;5090127;28;20044;-66
2023/04/13 08:41:15;;;;;;;1.13;0.40;;;20.50;56.70;;;;;;5091942;28;20086;-66
2023/04/13 08:43:41;;;;;;;2.57;0.90;;;20.50;56.70;;;;;;5095368;28;20040;-65
2023/04/13 08:46:06;;;;;;;3.85;0.45;;;20.50;56.70;;;;;;5094217;28;20467;-65
2023/04/13 08:48:32;;;;;;;1.63;0.35;;;20.50;56.70;;;;;;5096293;28;20059;-65
2023/04/13 08:50:58;;;;;;;1.55;0.40;;;20.50;56.70;;;;;;5094697;28;20056;-66
2023/04/13 08:53:24;;;;;;;1.90;0.30;;;20.40;56.60;;;;;;5095282;28;20051;-75
2023/04/13 08:55:50;;;;;;;1.95;0.30;;;20.40;56.70;;;;;;5095441;28;20052;-66
2023/04/13 08:58:19;;;;;;;2.30;0.50;;;20.40;56.70;;;;;;5094230;28;20036;-66
2023/04/13 09:00:46;;;;;;;3.30;0.63;;;20.40;56.60;;;;;;5094427;28;20387;-68
2023/04/13 09:03:12;;;;;;;1.40;0.38;;;20.40;56.60;;;;;;5074032;28;20047;-68
2023/04/13 09:05:39;;;;;;;2.97;0.47;;;20.40;56.60;;;;;;5093404;28;20476;-65
2023/04/13 09:08:06;;;;;;;4.28;0.50;;;20.40;56.70;;;;;;5091115;28;20036;-65
2023/04/13 09:10:35;;;;;;;3.80;0.60;;;20.40;56.70;;;;;;5095902;28;20126;-64
2023/04/13 09:13:00;;;;;;;2.22;0.40;;;20.40;56.70;;;;;;5095375;28;20464;-63
2023/04/13 09:15:26;;;;;;;1.23;0.30;;;20.40;56.80;;;;;;5094662;28;20046;-63
2023/04/13 09:17:52;;;;;;;2.50;0.50;;;20.40;56.90;;;;;;5094756;28;20040;-63
2023/04/13 09:20:22;;;;;;;2.65;0.75;;;20.30;56.80;;;;;;5092067;28;20124;-65
2023/04/13 09:22:48;;;;;;;1.27;0.50;;;20.30;56.90;;;;;;5094969;28;20491;-65
2023/04/13 09:25:21;;;;;;;3.25;0.68;;;20.30;56.90;;;;;;5095131;28;20043;-64
2023/04/13 09:27:46;;;;;;;2.95;0.50;;;20.30;56.90;;;;;;5094467;28;20064;-64
2023/04/13 09:30:12;;;;;;;3.42;0.60;;;20.30;56.90;;;;;;5092997;28;20068;-66
2023/04/13 09:32:38;;;;;;;3.78;0.52;;;20.30;56.90;;;;;;5094219;28;20051;-65
2023/04/13 09:35:05;;;;;;;2.08;0.40;;;20.30;57.00;;;;;;5093850;28;20036;-64
2023/04/13 09:37:33;;;;;;;2.03;0.50;;;20.20;56.90;;;;;;5095386;28;20059;-65
2023/04/13 09:40:12;;;;;;;4.43;0.60;;;20.20;57.10;;;;;;5095352;28;20044;-66
2023/04/13 09:42:40;;;;;;;1.85;0.65;;;20.20;57.20;;;;;;5094666;28;20119;-66
2023/04/13 09:45:06;;;;;;;2.67;0.50;;;20.20;57.20;;;;;;5095059;28;20051;-64
2023/04/13 09:47:37;;;;;;;2.95;0.52;;;20.20;57.20;;;;;;5095265;28;20044;-74
2023/04/13 09:50:05;;;;;;;2.60;0.60;;;20.20;57.20;;;;;;5094388;28;20096;-64
2023/04/13 09:52:31;;;;;;;2.20;0.65;;;20.20;57.20;;;;;;5094967;28;20044;-64
2023/04/13 09:54:59;;;;;;;3.30;0.63;;;20.20;57.20;;;;;;5076830;28;20040;-64
2023/04/13 09:57:25;;;;;;;;;;;20.20;57.20;;;;;;5094640;28;20044;-64
2023/04/13 09:59:52;;;;;;;3.15;0.77;;;20.10;57.20;;;;;;5095239;28;19920;-65
2023/04/13 10:02:18;;;;;;;1.83;0.90;;;20.20;57.20;;;;;;5094901;28;20479;-65
2023/04/13 10:04:43;;;;;;;4.55;0.82;;;20.10;57.30;;;;;;5093622;28;20125;-65
2023/04/13 10:07:10;;;;;;;3.22;0.90;;;20.20;57.30;;;;;;5093147;28;20081;-65
2023/04/13 10:09:36;;;;;;;1.83;0.68;;;20.20;57.30;;;;;;5091812;28;20051;-64
2023/04/13 10:12:02;;;;;;;1.42;0.75;;;20.20;57.30;;;;;;5093834;28;20058;-64
2023/04/13 10:14:31;;;;;;;1.90;0.60;;;20.20;57.30;;;;;;5093179;28;20036;-64
2023/04/13 10:17:15;;;;;;;2.53;0.70;;;20.10;57.30;;;;;;5075546;28;20036;-65
2023/04/13 10:19:43;;;;;;;3.45;0.93;;;20.10;57.30;;;;;;5093161;28;20052;-64
2023/04/13 10:22:09;;;;;;;4.07;0.90;;;20.10;57.30;;;;;;5092307;28;20449;-64
2023/04/13 10:24:35;;;;;;;2.38;0.93;;;20.10;57.20;;;;;;5075381;28;20520;-64
2023/04/13 10:27:13;;;;;;;3.22;1.13;;;20.20;57.30;;;;;;5093009;28;20039;-64
2023/04/13 10:29:38;;;;;;;3.40;1.17;;;20.20;57.30;;;;;;5092723;28;20051;-65
2023/04/13 10:32:05;;;;;;;2.75;0.80;;;20.20;57.30;;;;;;5093446;28;20047;-65
2023/04/13 10:34:31;;;;;;;3.83;0.98;;;20.20;57.30;;;;;;5106474;28;20054;-65
2023/04/13 10:37:05;;;;;;;3.33;0.80;;;20.20;57.40;;;;;;5114350;28;20036;-65
2023/04/13 10:39:34;;;;;;;4.57;1.00;;;20.20;57.30;;;;;;5096498;28;20040;-64
2023/04/13 10:42:07;;;;;;;3.55;0.90;;;20.20;57.30;;;;;;5092387;28;20085;-64
2023/04/13 10:44:43;;;;;;;2.67;0.70;;;20.20;57.30;;;;;;5093987;28;20044;-64
2023/04/13 10:47:09;;;;;;;3.15;0.88;;;20.20;57.20;;;;;;5091038;28;20075;-64
2023/04/13 10:49:36;;;;;;;2.03;0.85;;;20.20;57.20;;;;;;5091929;28;20044;-64
2023/04/13 10:52:02;;;;;;;3.33;1.10;;;20.20;57.20;;;;;;5074461;28;20402;-64
2023/04/13 10:54:29;;;;;;;2.45;0.90;;;20.20;57.20;;;;;;5093820;28;20523;-64
2023/04/13 10:56:58;;;;;;;2.38;0.73;;;20.20;57.20;;;;;;5092054;28;20430;-64
2023/04/13 10:59:48;;;;;;;3.03;1.15;;;20.20;57.20;;;;;;5091056;28;20047;-64
2023/04/13 11:02:15;;;;;;;2.17;0.90;;;20.20;57.10;;;;;;5092525;28;21123;-64
2023/04/13 11:04:46;;;;;;;1.83;0.93;;;20.20;57.20;;;;;;5092872;28;20130;-63
2023/04/13 11:07:16;;;;;;;3.08;0.80;;;20.20;57.20;;;;;;5091987;28;20483;-64
2023/04/13 11:09:42;;;;;;;3.15;0.85;;;20.20;57.20;;;;;;5092790;28;20051;-64
2023/04/13 11:12:08;;;;;;;3.53;1.10;;;20.20;57.20;;;;;;5093366;28;20040;-64
2023/04/13 11:14:37;;;;;;;3.47;0.90;;;20.20;57.20;;;;;;5092640;28;20131;-65
2023/04/13 11:17:06;;;;;;;1.80;0.77;;;20.10;57.20;;;;;;5093340;28;20127;-65
2023/04/13 11:19:33;;;;;;;3.30;1.08;;;20.20;57.20;;;;;;5093412;28;20035;-65
2023/04/13 11:22:00;;;;;;;1.80;0.90;;;20.10;57.20;;;;;;5092254;28;20098;-64
2023/04/13 11:24:26;;;;;;;3.15;0.90;;;20.10;57.30;;;;;;5092602;28;20403;-65
2023/04/13 11:26:53;;;;;;;2.55;1.02;;;20.10;57.20;;;;;;5092373;28;20040;-64
2023/04/13 11:29:19;;;;;;;2.42;0.80;;;20.10;57.30;;;;;;5089545;28;20115;-63
2023/04/13 11:31:45;;;;;;;3.55;1.00;;;20.10;57.30;;;;;;5092942;28;20075;-63
2023/04/13 11:34:11;;;;;;;3.65;0.95;;;20.10;57.40;;;;;;5094447;28;20062;-62
2023/04/13 11:36:38;;;;;;;5.25;0.93;;;20.10;57.40;;;;;;5094123;28;20456;-63
2023/04/13 11:39:06;;;;;;;3.25;1.15;;;20.10;57.40;;;;;;5091069;28;20491;-63
2023/04/13 11:41:32;;;;;;;;;;;20.10;57.40;;;;;;5074126;28;20036;-62
2023/04/13 11:44:01;;;;;;;2.53;0.93;;;20.10;57.40;;;;;;5091476;28;20015;-64
2023/04/13 11:46:27;;;;;;;3.10;1.08;;;20.10;57.40;;;;;;5091840;28;20051;-63
2023/04/13 11:48:53;;;;;;;2.80;0.75;;;20.10;57.50;;;;;;5091732;28;20040;-63
2023/04/13 11:51:19;;;;;;;2.22;0.80;;;20.10;57.40;;;;;;5090996;28;20536;-64
2023/04/13 11:53:45;;;;;;;3.85;1.05;;;20.10;57.60;;;;;;5054653;28;20041;-63
2023/04/13 11:56:11;;;;;;;4.63;1.13;;;20.10;57.60;;;;;;5088940;28;20043;-63
2023/04/13 11:58:38;;;;;;;3.78;1.08;;;20.10;57.50;;;;;;5092776;28;20036;-63
2023/04/13 12:01:07;;;;;;;3.55;1.20;;;20.10;57.60;;;;;;5092159;28;20043;-65
2023/04/13 12:03:33;;;;;;;3.75;1.25;;;20.20;57.60;;;;;;5088487;28;20043;-64
2023/04/13 12:06:01;;;;;;;3.42;0.90;;;20.20;57.70;;;;;;5090080;28;20048;-64
2023/04/13 12:08:28;;;;;;;4.15;0.88;;;20.20;57.70;;;;;;5090458;28;20046;-64
2023/04/13 12:11:02;;;;;;;2.70;1.00;;;20.20;57.50;;;;;;5090857;28;20402;-64
2023/04/13 12:13:38;;;;;;;6.10;1.15;;;20.20;57.20;;;;;;5092173;28;20077;-64
2023/04/13 12:16:04;;;;;;;3.67;1.17;;;20.20;57.00;;;;;;5090118;28;20043;-65
2023/04/13 12:18:30;;;;;;;4.57;1.20;;;20.20;57.00;;;;;;5096060;28;20399;-64
2023/04/13 12:20:59;;;;;;;5.25;1.15;;;20.20;57.00;;;;;;5096068;28;20044;-64
2023/04/13 12:23:26;;;;;;;6.25;1.20;;;20.20;56.90;;;;;;5095478;28;20051;-64
2023/04/13 12:25:55;;;;;;;5.03;1.23;;;20.20;56.90;;;;;;5096719;28;20044;-64
2023/04/13 12:28:21;;;;;;;5.35;1.63;;;20.20;56.90;;;;;;5096444;28;20491;-64
2023/04/13 12:30:46;;;;;;;3.85;1.05;;;20.20;56.80;;;;;;5095783;28;20131;-64
2023/04/13 12:33:12;;;;;;;3.80;0.95;;;20.20;56.80;;;;;;5094747;28;20043;-64
2023/04/13 12:35:38;;;;;;;4.53;1.25;;;20.20;56.70;;;;;;5094388;28;20040;-64
2023/04/13 12:38:04;;;;;;;6.32;1.23;;;20.20;56.60;;;;;;5095326;28;20059;-64
2023/04/13 12:40:29;;;;;;;5.13;1.17;;;20.20;56.60;;;;;;5095276;28;20044;-64
2023/04/13 12:42:55;;;;;;;4.78;1.30;;;20.20;56.50;;;;;;5095748;28;20451;-64
2023/04/13 12:45:21;;;;;;;4.75;1.10;;;20.20;56.50;;;;;;5095580;28;20499;-65
2023/04/13 12:47:46;;;;;;;4.30;1.33;;;20.20;56.40;;;;;;5094709;28;20503;-65